createdAt,value
2022-08-10T00:00:57.121Z,16.42
2022-08-10T00:03:23.633Z,16.39
2022-08-10T00:05:52.984Z,16.37
2022-08-10T00:08:24.038Z,16.33
2022-08-10T00:10:56.018Z,16.30
2022-08-10T00:13:24.032Z,16.27
2022-08-10T00:15:54.900Z,16.24
2022-08-10T00:18:34.776Z,16.20
2022-08-10T00:21:07.993Z,16.15
2022-08-10T00:23:37.459Z,16.11
2022-08-10T00:26:05.674Z,16.07
2022-08-10T00:28:32.235Z,16.02
2022-08-10T00:30:59.271Z,15.98
2022-08-10T00:33:26.123Z,15.93
2022-08-10T00:35:52.658Z,15.90
2022-08-10T00:38:19.195Z,15.85
2022-08-10T00:40:46.128Z,15.81
2022-08-10T00:43:12.868Z,15.78
2022-08-10T00:45:39.885Z,15.75
2022-08-10T00:48:06.646Z,15.74
2022-08-10T00:50:33.727Z,15.71
2022-08-10T00:53:00.931Z,15.70
2022-08-10T00:55:27.987Z,15.69
2022-08-10T00:57:55.714Z,15.67
2022-08-10T01:00:24.136Z,15.65
2022-08-10T01:02:51.489Z,15.63
2022-08-10T01:05:19.664Z,15.60
2022-08-10T01:08:10.045Z,15.58
2022-08-10T01:11:01.745Z,15.56
2022-08-10T01:13:40.744Z,15.53
2022-08-10T01:16:20.661Z,15.51
2022-08-10T01:18:54.558Z,15.50
2022-08-10T01:21:57.126Z,15.47
2022-08-10T01:24:37.668Z,15.45
2022-08-10T01:27:20.780Z,15.43
2022-08-10T01:30:04.695Z,15.40
2022-08-10T01:32:37.089Z,15.38
2022-08-10T01:35:39.282Z,15.34
2022-08-10T01:38:11.168Z,15.32
2022-08-10T01:40:44.622Z,15.30
2022-08-10T01:43:15.819Z,15.28
2022-08-10T01:45:46.014Z,15.29
2022-08-10T01:48:28.466Z,15.28
2022-08-10T01:51:04.249Z,15.25
2022-08-10T01:53:40.989Z,15.23
2022-08-10T01:56:14.883Z,15.20
2022-08-10T01:58:46.128Z,15.18
2022-08-10T02:01:16.870Z,15.16
2022-08-10T02:04:04.270Z,15.12
2022-08-10T02:06:37.937Z,15.08
2022-08-10T02:09:07.310Z,15.03
2022-08-10T02:12:05.090Z,15.00
2022-08-10T02:14:33.515Z,14.97
2022-08-10T02:17:59.593Z,14.94
2022-08-10T02:20:05.151Z,14.93
2022-08-10T02:22:38.408Z,14.91
2022-08-10T02:25:09.607Z,14.87
2022-08-10T02:27:57.651Z,14.83
2022-08-10T02:30:26.023Z,14.80
2022-08-10T02:32:54.668Z,14.76
2022-08-10T02:35:23.374Z,14.73
2022-08-10T02:37:57.227Z,14.70
2022-08-10T02:45:13.653Z,14.68
2022-08-10T02:45:20.592Z,14.67
2022-08-10T02:46:46.448Z,14.66
2022-08-10T02:49:21.208Z,14.63
2022-08-10T02:52:07.635Z,14.61
2022-08-10T02:54:42.651Z,14.59
2022-08-10T02:57:16.144Z,14.58
2022-08-10T02:59:49.315Z,14.57
2022-08-10T03:02:42.127Z,14.54
2022-08-10T03:05:14.067Z,14.50
2022-08-10T03:07:49.365Z,14.47
2022-08-10T03:10:21.129Z,14.45
2022-08-10T03:12:51.687Z,14.43
2022-08-10T03:15:21.436Z,14.40
2022-08-10T03:17:58.249Z,14.38
2022-08-10T03:20:40.486Z,14.36
2022-08-10T03:23:22.824Z,14.33
2022-08-10T03:25:54.063Z,14.31
2022-08-10T03:28:28.943Z,14.29
2022-08-10T03:30:59.756Z,14.28
2022-08-10T03:33:32.579Z,14.27
2022-08-10T03:36:43.572Z,14.26
2022-08-10T03:38:50.988Z,14.25
2022-08-10T03:41:35.948Z,14.23
2022-08-10T03:44:06.295Z,14.23
2022-08-10T03:46:37.719Z,14.23
2022-08-10T03:49:05.487Z,14.27
2022-08-10T03:51:34.352Z,14.32
2022-08-10T03:54:07.299Z,14.38
2022-08-10T03:56:37.036Z,14.46
2022-08-10T03:59:11.485Z,14.55
2022-08-10T04:02:44.274Z,14.67
2022-08-10T04:04:33.930Z,14.84
2022-08-10T04:07:03.063Z,15.01
2022-08-10T04:09:54.413Z,15.18
2022-08-10T04:12:20.029Z,15.40
2022-08-10T04:14:50.358Z,15.59
2022-08-10T04:17:57.081Z,15.83
2022-08-10T04:20:19.299Z,16.11
2022-08-10T04:22:51.778Z,16.37
2022-08-10T04:25:20.454Z,16.62
2022-08-10T04:27:48.568Z,16.87
2022-08-10T04:30:16.008Z,17.12
2022-08-10T04:32:47.398Z,17.36
2022-08-10T04:35:18.466Z,17.63
2022-08-10T04:37:50.439Z,17.88
2022-08-10T04:40:29.351Z,18.13
2022-08-10T04:43:01.403Z,18.37
2022-08-10T04:45:48.328Z,18.59
2022-08-10T04:48:42.687Z,18.88
2022-08-10T04:51:19.337Z,19.17
2022-08-10T04:54:05.024Z,19.44
2022-08-10T04:56:38.615Z,19.62
2022-08-10T04:59:10.246Z,19.75
2022-08-10T05:02:22.051Z,19.90
2022-08-10T05:04:33.793Z,20.13
2022-08-10T05:07:09.650Z,20.37
2022-08-10T05:10:01.516Z,20.56
2022-08-10T05:12:28.966Z,20.79
2022-08-10T05:14:55.890Z,21.01
2022-08-10T05:17:23.845Z,21.23
2022-08-10T05:20:03.945Z,21.48
2022-08-10T05:22:41.002Z,21.75
2022-08-10T05:25:10.768Z,21.94
2022-08-10T05:27:38.752Z,22.16
2022-08-10T05:30:07.292Z,22.38
2022-08-10T05:32:56.754Z,22.62
2022-08-10T05:35:22.663Z,22.90
2022-08-10T05:38:12.127Z,23.11
2022-08-10T05:40:40.524Z,23.29
2022-08-10T05:43:09.082Z,23.51
2022-08-10T05:46:17.683Z,23.77
2022-08-10T05:48:41.561Z,24.01
2022-08-10T05:51:10.497Z,24.27
2022-08-10T05:54:02.154Z,24.48
2022-08-10T05:56:26.318Z,24.73
2022-08-10T05:58:53.136Z,24.94
2022-08-10T06:01:24.373Z,25.04
2022-08-10T06:03:57.975Z,25.07
2022-08-10T06:06:28.179Z,25.00
2022-08-10T06:08:56.013Z,24.93
2022-08-10T06:12:27.102Z,24.89
2022-08-10T06:14:32.096Z,24.79
2022-08-10T06:17:00.693Z,24.90
2022-08-10T06:19:27.676Z,25.08
2022-08-10T06:22:01.478Z,25.22
2022-08-10T06:24:30.728Z,25.36
2022-08-10T06:26:58.718Z,25.54
2022-08-10T06:29:30.279Z,25.75
2022-08-10T06:31:59.068Z,25.94
2022-08-10T06:34:29.941Z,26.07
2022-08-10T06:37:01.208Z,26.20
2022-08-10T06:39:36.634Z,26.38
2022-08-10T06:42:17.715Z,26.50
2022-08-10T06:44:55.004Z,26.64
2022-08-10T06:47:29.729Z,26.69
2022-08-10T06:50:08.682Z,26.77
2022-08-10T06:52:37.871Z,26.79
2022-08-10T06:55:08.509Z,26.83
2022-08-10T06:57:38.182Z,26.88
2022-08-10T07:00:07.704Z,26.83
2022-08-10T07:02:43.724Z,26.84
2022-08-10T07:05:16.780Z,26.78
2022-08-10T07:07:46.282Z,26.37
2022-08-10T07:10:18.232Z,26.08
2022-08-10T07:12:47.672Z,26.14
2022-08-10T07:15:16.793Z,26.35
2022-08-10T07:17:45.675Z,26.56
2022-08-10T07:20:17.068Z,26.62
2022-08-10T07:23:08.706Z,26.35
2022-08-10T07:25:41.688Z,26.17
2022-08-10T07:28:09.861Z,26.22
2022-08-10T07:30:40.113Z,26.20
2022-08-10T07:33:09.053Z,26.12
2022-08-10T07:35:43.160Z,25.85
2022-08-10T07:38:21.258Z,25.69
2022-08-10T07:40:50.726Z,25.72
2022-08-10T07:43:21.357Z,25.56
2022-08-10T07:45:49.066Z,25.26
2022-08-10T07:48:26.882Z,24.94
2022-08-10T07:50:58.956Z,24.71
2022-08-10T07:53:38.058Z,24.66
2022-08-10T07:56:16.870Z,24.63
2022-08-10T07:59:02.535Z,24.57
2022-08-10T08:01:34.371Z,24.66
2022-08-10T08:04:10.563Z,24.75
2022-08-10T08:06:41.926Z,24.67
2022-08-10T08:09:10.697Z,24.46
2022-08-10T08:11:40.696Z,24.42
2022-08-10T08:14:08.515Z,24.42
2022-08-10T08:16:41.275Z,24.41
2022-08-10T08:19:26.851Z,24.48
2022-08-10T08:24:09.123Z,24.48
2022-08-10T08:24:44.480Z,24.47
2022-08-10T08:27:16.182Z,24.35
2022-08-10T08:29:46.567Z,24.32
2022-08-10T08:32:17.166Z,24.33
2022-08-10T08:34:44.726Z,24.37
2022-08-10T08:38:31.279Z,24.41
2022-08-10T08:40:05.663Z,24.47
2022-08-10T08:43:05.281Z,24.56
2022-08-10T08:45:54.096Z,24.68
2022-08-10T08:49:05.091Z,24.77
2022-08-10T08:52:18.620Z,24.87
2022-08-10T08:55:02.739Z,24.86
2022-08-10T08:57:50.425Z,24.81
2022-08-10T09:00:55.506Z,24.81
2022-08-10T09:03:37.582Z,24.89
2022-08-10T09:06:22.542Z,24.99
2022-08-10T09:09:34.478Z,24.98
2022-08-10T09:12:40.314Z,24.86
2022-08-10T09:15:39.666Z,24.80
2022-08-10T09:18:07.604Z,24.97
2022-08-10T09:21:05.984Z,25.05
2022-08-10T09:24:04.495Z,24.98
2022-08-10T09:26:45.138Z,25.04
2022-08-10T09:29:17.869Z,25.16
2022-08-10T09:36:13.563Z,25.18
2022-08-10T09:36:23.160Z,25.27
2022-08-10T09:38:12.300Z,25.33
2022-08-10T09:40:59.453Z,25.27
2022-08-10T09:43:50.763Z,25.21
2022-08-10T09:46:33.290Z,25.10
2022-08-10T09:49:54.500Z,25.10
2022-08-10T09:52:31.280Z,25.21
2022-08-10T09:56:18.966Z,25.34
2022-08-10T09:58:36.311Z,25.53
2022-08-10T10:01:57.901Z,25.56
2022-08-10T10:04:15.856Z,25.39
2022-08-10T10:06:58.814Z,25.38
2022-08-10T10:09:44.097Z,25.38
2022-08-10T10:12:39.375Z,25.38
2022-08-10T10:15:37.123Z,25.43
2022-08-10T10:18:29.521Z,25.46
2022-08-10T10:21:54.534Z,25.52
2022-08-10T10:24:56.359Z,25.51
2022-08-10T10:27:37.600Z,25.51
2022-08-10T10:30:27.248Z,25.60
2022-08-10T10:33:13.331Z,25.63
2022-08-10T10:35:51.674Z,25.66
2022-08-10T10:38:21.565Z,25.67
2022-08-10T10:41:19.629Z,25.84
2022-08-10T10:44:21.164Z,26.06
2022-08-10T10:47:09.553Z,26.18
2022-08-10T10:49:49.298Z,26.37
2022-08-10T10:52:45.017Z,26.39
2022-08-10T10:55:18.449Z,26.32
2022-08-10T10:58:20.671Z,26.28
2022-08-10T11:01:01.614Z,26.40
2022-08-10T11:03:50.233Z,26.66
2022-08-10T11:06:52.038Z,26.94
2022-08-10T11:10:09.500Z,26.95
2022-08-10T11:12:45.701Z,26.85
2022-08-10T11:15:29.868Z,26.76
2022-08-10T11:18:08.698Z,26.61
2022-08-10T11:20:44.979Z,26.38
2022-08-10T11:23:33.467Z,26.20
2022-08-10T11:26:25.578Z,26.06
2022-08-10T11:29:20.052Z,26.23
2022-08-10T11:32:20.529Z,26.56
2022-08-10T11:35:36.898Z,26.84
2022-08-10T11:38:28.432Z,27.09
2022-08-10T11:42:05.739Z,27.27
2022-08-10T11:44:18.324Z,27.29
2022-08-10T11:47:00.992Z,27.27
2022-08-10T11:49:37.216Z,27.33
2022-08-10T11:52:10.562Z,27.46
2022-08-10T11:54:50.794Z,27.52
2022-08-10T11:57:19.546Z,27.67
2022-08-10T11:59:57.959Z,27.82
2022-08-10T12:02:44.171Z,27.84
2022-08-10T12:05:23.974Z,27.85
2022-08-10T12:10:01.775Z,27.97
2022-08-10T12:10:58.917Z,28.10
2022-08-10T12:13:30.557Z,28.29
2022-08-10T12:16:14.757Z,28.47
2022-08-10T12:19:01.464Z,28.68
2022-08-10T12:21:40.027Z,28.60
2022-08-10T12:24:32.318Z,28.28
2022-08-10T12:27:07.493Z,28.08
2022-08-10T12:29:51.839Z,27.97
2022-08-10T12:32:30.865Z,27.64
2022-08-10T12:35:27.396Z,27.46
2022-08-10T12:38:49.834Z,27.32
2022-08-10T12:41:43.146Z,27.30
2022-08-10T12:44:14.439Z,27.18
2022-08-10T12:47:05.757Z,27.17
2022-08-10T12:50:13.680Z,27.26
2022-08-10T12:53:14.480Z,27.30
2022-08-10T12:55:43.709Z,27.51
2022-08-10T12:58:59.558Z,27.81
2022-08-10T13:01:16.087Z,28.03
2022-08-10T13:04:21.423Z,28.26
2022-08-10T13:06:46.898Z,28.48
2022-08-10T13:09:56.127Z,28.63
2022-08-10T13:12:39.015Z,28.68
2022-08-10T13:15:45.593Z,28.60
2022-08-10T13:18:06.631Z,28.47
2022-08-10T13:20:52.253Z,28.31
2022-08-10T13:23:22.328Z,28.23
2022-08-10T13:25:51.681Z,28.25
2022-08-10T13:28:45.654Z,28.38
2022-08-10T13:31:19.226Z,28.36
2022-08-10T13:34:41.522Z,28.31
2022-08-10T13:36:41.163Z,28.27
2022-08-10T13:39:07.937Z,28.06
2022-08-10T13:41:40.372Z,27.82
2022-08-10T13:44:10.989Z,27.70
2022-08-10T13:46:41.600Z,27.57
2022-08-10T13:49:11.126Z,27.34
2022-08-10T13:51:56.726Z,27.27
2022-08-10T13:54:36.158Z,27.30
2022-08-10T13:57:04.169Z,27.42
2022-08-10T14:00:33.797Z,27.49
2022-08-10T14:02:28.115Z,27.54
2022-08-10T14:04:57.674Z,27.44
2022-08-10T14:07:27.569Z,27.52
2022-08-10T14:10:06.580Z,27.70
2022-08-10T14:12:40.950Z,27.76
2022-08-10T14:15:13.955Z,27.77
2022-08-10T14:17:44.939Z,27.81
2022-08-10T14:20:19.277Z,27.77
2022-08-10T14:22:48.197Z,27.75
2022-08-10T14:25:15.970Z,27.80
2022-08-10T14:28:01.954Z,27.72
2022-08-10T14:30:32.406Z,27.77
2022-08-10T14:33:03.783Z,27.87
2022-08-10T14:36:18.537Z,27.92
2022-08-10T14:38:31.542Z,28.01
2022-08-10T14:41:01.159Z,27.82
2022-08-10T14:43:53.679Z,27.51
2022-08-10T14:46:23.583Z,27.28
2022-08-10T14:48:52.996Z,27.13
2022-08-10T14:51:25.731Z,26.93
2022-08-10T14:53:56.427Z,26.80
2022-08-10T14:56:30.447Z,26.90
2022-08-10T14:59:06.700Z,27.11
2022-08-10T15:02:00.963Z,27.33
2022-08-10T15:04:29.217Z,27.47
2022-08-10T15:07:23.057Z,27.60
2022-08-10T15:10:00.944Z,27.66
2022-08-10T15:12:35.466Z,27.65
2022-08-10T15:15:05.854Z,27.60
2022-08-10T15:17:36.592Z,27.54
2022-08-10T15:20:20.613Z,27.44
2022-08-10T15:22:52.236Z,27.29
2022-08-10T15:25:25.057Z,27.18
2022-08-10T15:27:55.916Z,27.08
2022-08-10T15:30:30.670Z,27.00
2022-08-10T15:33:59.455Z,26.96
2022-08-10T15:37:02.453Z,26.98
2022-08-10T15:40:21.697Z,27.00
2022-08-10T15:42:54.341Z,26.90
2022-08-10T15:45:22.856Z,26.79
2022-08-10T15:48:02.476Z,26.74
2022-08-10T15:50:33.885Z,26.81
2022-08-10T15:53:08.945Z,26.84
2022-08-10T15:55:58.263Z,26.71
2022-08-10T15:58:39.860Z,26.55
2022-08-10T16:02:04.594Z,26.53
2022-08-10T16:04:34.558Z,26.56
2022-08-10T16:07:11.834Z,26.60
2022-08-10T16:10:11.033Z,26.59
2022-08-10T16:12:42.714Z,26.60
2022-08-10T16:15:17.810Z,26.58
2022-08-10T16:17:55.778Z,26.53
2022-08-10T16:20:53.552Z,26.37
2022-08-10T16:23:25.684Z,26.31
2022-08-10T16:26:13.499Z,26.30
2022-08-10T16:28:54.645Z,26.33
2022-08-10T16:31:25.066Z,26.28
2022-08-10T16:33:55.499Z,26.26
2022-08-10T16:36:31.581Z,26.23
2022-08-10T16:38:59.298Z,26.12
2022-08-10T16:42:03.456Z,26.00
2022-08-10T16:44:18.084Z,25.91
2022-08-10T16:46:47.541Z,25.81
2022-08-10T16:49:17.415Z,25.76
2022-08-10T16:52:08.673Z,25.70
2022-08-10T16:54:39.202Z,25.65
2022-08-10T16:57:10.866Z,25.60
2022-08-10T16:59:39.925Z,25.51
2022-08-10T17:02:11.097Z,25.45
2022-08-10T17:04:43.626Z,25.38
2022-08-10T17:07:15.600Z,25.36
2022-08-10T17:09:48.826Z,25.30
2022-08-10T17:12:19.817Z,25.24
2022-08-10T17:14:52.482Z,25.17
2022-08-10T17:17:45.925Z,25.12
2022-08-10T17:20:30.748Z,25.10
2022-08-10T17:23:10.421Z,25.06
2022-08-10T17:25:48.795Z,25.02
2022-08-10T17:28:34.826Z,25.01
2022-08-10T17:31:23.610Z,24.95
2022-08-10T17:34:02.532Z,24.90
2022-08-10T17:36:34.749Z,24.81
2022-08-10T17:39:05.165Z,24.73
2022-08-10T17:41:36.513Z,24.67
2022-08-10T17:44:04.847Z,24.60
2022-08-10T17:46:37.933Z,24.48
2022-08-10T17:49:11.802Z,24.37
2022-08-10T17:51:41.952Z,24.26
2022-08-10T17:54:21.369Z,24.17
2022-08-10T17:56:52.161Z,24.06
2022-08-10T17:59:24.130Z,23.98
2022-08-10T18:02:01.649Z,23.89
2022-08-10T18:04:41.469Z,23.79
2022-08-10T18:07:12.986Z,23.70
2022-08-10T18:09:55.520Z,23.60
2022-08-10T18:12:34.710Z,23.49
2022-08-10T18:15:13.395Z,23.38
2022-08-10T18:17:45.708Z,23.29
2022-08-10T18:20:14.337Z,23.19
2022-08-10T18:22:48.450Z,23.10
2022-08-10T18:25:22.428Z,23.01
2022-08-10T18:28:03.751Z,22.91
2022-08-10T18:30:36.237Z,22.79
2022-08-10T18:33:08.843Z,22.69
2022-08-10T18:35:39.120Z,22.59
2022-08-10T18:38:11.589Z,22.50
2022-08-10T18:40:50.721Z,22.42
2022-08-10T18:44:10.344Z,22.33
2022-08-10T18:46:12.492Z,22.23
2022-08-10T18:48:49.500Z,22.13
2022-08-10T18:51:24.823Z,22.04
2022-08-10T18:54:05.180Z,21.96
2022-08-10T18:56:39.453Z,21.88
2022-08-10T18:59:20.809Z,21.81
2022-08-10T19:02:22.162Z,21.73
2022-08-10T19:05:30.148Z,21.64
2022-08-10T19:08:30.751Z,21.55
2022-08-10T19:11:28.360Z,21.46
2022-08-10T19:14:03.181Z,21.39
2022-08-10T19:16:53.753Z,21.33
2022-08-10T19:19:33.597Z,21.26
2022-08-10T19:22:07.726Z,21.21
2022-08-10T19:24:57.547Z,21.15
2022-08-10T19:27:51.741Z,21.09
2022-08-10T19:30:28.586Z,21.03
2022-08-10T19:33:04.597Z,20.98
2022-08-10T19:36:03.508Z,20.93
2022-08-10T19:38:51.277Z,20.87
2022-08-10T19:41:44.694Z,20.81
2022-08-10T19:44:31.679Z,20.74
2022-08-10T19:47:25.819Z,20.68
2022-08-10T19:50:18.815Z,20.61
2022-08-10T19:53:24.978Z,20.53
2022-08-10T19:56:18.531Z,20.46
2022-08-10T19:59:03.266Z,20.40
2022-08-10T20:01:54.394Z,20.35
2022-08-10T20:04:35.997Z,20.29
2022-08-10T20:07:27.217Z,20.24
2022-08-10T20:10:00.216Z,20.17
2022-08-10T20:12:50.639Z,20.12
2022-08-10T20:15:42.256Z,20.05
2022-08-10T20:18:34.052Z,19.99
2022-08-10T20:21:25.020Z,19.92
2022-08-10T20:23:57.766Z,19.84
2022-08-10T20:26:28.214Z,19.78
2022-08-10T20:29:04.330Z,19.72
2022-08-10T20:31:45.435Z,19.64
2022-08-10T20:34:20.839Z,19.57
2022-08-10T20:37:06.257Z,19.50
2022-08-10T20:39:56.159Z,19.44
2022-08-10T20:42:31.558Z,19.36
2022-08-10T20:45:19.606Z,19.29
2022-08-10T20:48:25.547Z,19.22
2022-08-10T20:51:13.483Z,19.16
2022-08-10T20:53:51.315Z,19.09
2022-08-10T20:56:47.805Z,19.02
2022-08-10T21:00:04.606Z,18.96
2022-08-10T21:02:48.974Z,18.89
2022-08-10T21:05:34.364Z,18.83
2022-08-10T21:08:17.279Z,18.76
2022-08-10T21:11:06.442Z,18.70
2022-08-10T21:14:11.292Z,18.63
2022-08-10T21:17:06.715Z,18.57
2022-08-10T21:19:59.368Z,18.50
2022-08-10T21:22:34.459Z,18.44
2022-08-10T21:25:29.451Z,18.38
2022-08-10T21:28:29.150Z,18.31
2022-08-10T21:31:36.298Z,18.25
2022-08-10T21:34:37.369Z,18.19
2022-08-10T21:37:19.962Z,18.13
2022-08-10T21:40:05.989Z,18.08
2022-08-10T21:43:32.170Z,18.03
2022-08-10T21:46:59.158Z,17.97
2022-08-10T21:50:27.293Z,17.92
2022-08-10T21:53:44.633Z,17.84
2022-08-10T21:56:47.732Z,17.77
2022-08-10T21:59:45.027Z,17.71
2022-08-10T22:02:49.765Z,17.64
2022-08-10T22:05:48.472Z,17.57
2022-08-10T22:08:38.441Z,17.52
2022-08-10T22:11:29.257Z,17.48
2022-08-10T22:14:15.446Z,17.42
2022-08-10T22:18:03.294Z,17.38
2022-08-10T22:20:35.841Z,17.33
2022-08-10T22:24:16.996Z,17.29
2022-08-10T22:27:46.614Z,17.22
2022-08-10T22:30:28.037Z,17.17
2022-08-10T22:33:37.689Z,17.14
2022-08-10T22:36:56.868Z,17.10
2022-08-10T22:40:12.101Z,17.06
2022-08-10T22:43:11.132Z,16.99
2022-08-10T22:46:08.132Z,16.93
2022-08-10T22:48:59.176Z,16.87
2022-08-10T22:51:36.106Z,16.81
2022-08-10T22:54:46.204Z,16.76
2022-08-10T22:57:36.661Z,16.70
2022-08-10T23:00:31.225Z,16.66
2022-08-10T23:03:10.765Z,16.62
2022-08-10T23:05:50.360Z,16.58
2022-08-10T23:08:33.798Z,16.54
2022-08-10T23:11:07.655Z,16.50
2022-08-10T23:13:41.329Z,16.45
2022-08-10T23:16:33.138Z,16.41
2022-08-10T23:19:11.569Z,16.37
2022-08-10T23:22:03.140Z,16.33
2022-08-10T23:24:44.481Z,16.30
2022-08-10T23:27:37.392Z,16.27
2022-08-10T23:30:11.154Z,16.24
2022-08-10T23:32:51.393Z,16.21
2022-08-10T23:36:30.006Z,16.17
2022-08-10T23:38:16.620Z,16.13
2022-08-10T23:40:46.970Z,16.11
2022-08-10T23:43:53.345Z,16.09
2022-08-10T23:46:21.667Z,16.07
2022-08-10T23:48:53.772Z,16.05
2022-08-10T23:51:54.888Z,16.03
2022-08-10T23:54:25.820Z,16.01
2022-08-10T23:57:00.991Z,15.99
2022-08-10T23:59:31.679Z,15.97
